Time;durP1;ratioP1;P1;durP2;ratioP2;P2;SDS_P1;SDS_P2;PMS_P1;PMS_P2;Temp;Humidity;BMP_temperature;BMP_pressure;BME280_temperature;BME280_humidity;BME280_pressure;Samples;Min_cycle;Max_cycle;Signal;HPM_P1;HPM_P2
2023/07/08 00:00:18;;;;;;;;;7.00;7.00;;;;;27.08;43.17;100814.91;4959533;28;57272;-63
2023/07/08 00:02:44;;;;;;;;;8.75;7.25;;;;;27.06;43.23;100821.56;4959334;28;45507;-63
2023/07/08 00:05:11;;;;;;;;;7.50;7.25;;;;;26.98;43.10;100817.72;4960920;28;45491;-62
2023/07/08 00:07:38;;;;;;;;;9.25;9.00;;;;;26.98;43.10;100823.22;4959986;28;45310;-63
2023/07/08 00:10:13;;;;;;;;;9.25;9.25;;;;;26.97;43.03;100837.06;4959802;28;46412;-63
2023/07/08 00:12:38;;;;;;;;;8.75;7.25;;;;;26.89;43.46;100832.34;4959277;28;45278;-63
2023/07/08 00:15:04;;;;;;;;;13.00;11.75;;;;;26.85;43.46;100836.41;4959416;28;46143;-63
2023/07/08 00:17:30;;;;;;;;;8.00;7.50;;;;;26.92;43.44;100840.25;4952945;28;45547;-63
2023/07/08 00:19:55;;;;;;;;;8.00;8.00;;;;;26.93;43.47;100838.38;4960028;28;46138;-63
2023/07/08 00:22:24;;;;;;;;;7.00;7.00;;;;;26.94;43.50;100837.34;4959210;28;45833;-62
2023/07/08 00:24:50;;;;;;;;;8.00;7.00;;;;;26.91;43.64;100835.78;4960135;28;45306;-63
2023/07/08 00:27:15;;;;;;;;;8.00;6.75;;;;;26.93;43.91;100838.38;4959490;28;45478;-63
2023/07/08 00:29:40;;;;;;;;;8.25;8.25;;;;;26.94;43.77;100848.31;4961526;28;58602;-62
2023/07/08 00:32:15;;;;;;;;;8.00;7.00;;;;;26.91;43.77;100838.50;4953506;28;45282;-62
2023/07/08 00:34:41;;;;;;;;;9.50;7.50;;;;;26.92;44.39;100850.34;4960019;28;45326;-63
2023/07/08 00:37:15;;;;;;;;;9.50;7.00;;;;;26.91;44.18;100856.84;4959460;28;45261;-63
2023/07/08 00:39:41;;;;;;;;;8.50;8.50;;;;;26.88;44.50;100868.97;4959625;28;45310;-63
2023/07/08 00:42:15;;;;;;;;;9.25;8.00;;;;;26.86;44.08;100875.59;4960646;28;47793;-62
2023/07/08 00:44:41;;;;;;;;;7.50;7.50;;;;;26.84;44.62;100873.00;4963241;28;45326;-62
2023/07/08 00:47:12;;;;;;;;;7.00;7.00;;;;;26.83;44.57;100871.31;4967185;28;45489;-62
2023/07/08 00:49:45;;;;;;;;;9.50;6.50;;;;;26.78;44.35;100859.91;4963900;28;45404;-63
2023/07/08 00:52:18;;;;;;;;;9.00;7.00;;;;;26.79;44.34;100865.25;4961709;28;45421;-62
2023/07/08 00:54:43;;;;;;;;;7.25;7.25;;;;;26.77;44.00;100856.34;4962978;28;45419;-62
2023/07/08 00:57:10;;;;;;;;;11.00;10.25;;;;;26.79;44.07;100864.41;4962124;28;45614;-63
2023/07/08 00:59:40;;;;;;;;;8.25;8.25;;;;;26.78;44.08;100859.91;4962651;28;46265;-63
2023/07/08 01:02:09;;;;;;;;;8.75;8.00;;;;;26.72;44.11;100846.88;4962283;28;45322;-63
2023/07/08 01:04:47;;;;;;;;;7.50;7.25;;;;;26.73;44.17;100852.19;4958726;28;45367;-63
2023/07/08 01:07:12;;;;;;;;;7.00;7.00;;;;;26.71;44.24;100859.66;4962804;28;46597;-63
2023/07/08 01:09:43;;;;;;;;;6.25;6.25;;;;;26.73;44.78;100870.47;4961926;28;45405;-63
2023/07/08 01:12:15;;;;;;;;;7.75;7.25;;;;;26.70;44.85;100868.06;4961639;28;45534;-62
2023/07/08 01:14:43;;;;;;;;;7.25;7.25;;;;;26.63;45.00;100873.28;4962699;28;45339;-63
2023/07/08 01:17:13;;;;;;;;;9.00;8.00;;;;;26.68;45.04;100881.03;4962638;28;45334;-63
2023/07/08 01:19:41;;;;;;;;;7.25;7.25;;;;;26.64;44.65;100872.25;4962511;28;46393;-63
2023/07/08 01:22:08;;;;;;;;;8.50;8.25;;;;;26.63;44.81;100870.56;4959776;28;45483;-62
2023/07/08 01:24:40;;;;;;;;;7.75;7.75;;;;;26.61;44.86;100864.31;4962870;28;45319;-62
2023/07/08 01:27:10;;;;;;;;;9.00;8.00;;;;;26.59;45.20;100864.44;4962010;28;45381;-63
2023/07/08 01:29:35;;;;;;;;;7.75;6.75;;;;;26.59;45.52;100858.13;4965292;28;45377;-63
2023/07/08 01:32:02;;;;;;;;;6.75;6.75;;;;;26.57;45.01;100862.91;4955876;28;45608;-62
2023/07/08 01:34:29;;;;;;;;;8.00;8.00;;;;;26.54;45.76;100865.94;4955693;28;45515;-63
2023/07/08 01:36:56;;;;;;;;;8.00;7.50;;;;;26.48;45.51;100856.47;4961914;28;45445;-63
2023/07/08 01:39:25;;;;;;;;;7.50;7.50;;;;;26.45;45.82;100859.50;4962320;28;46114;-62
2023/07/08 01:41:51;;;;;;;;;9.50;9.50;;;;;26.48;45.59;100878.34;4961930;28;45331;-62
2023/07/08 01:44:26;;;;;;;;;10.00;8.00;;;;;26.48;45.63;100921.25;4960934;28;45524;-63
2023/07/08 01:46:55;;;;;;;;;8.00;7.00;;;;;26.38;45.33;100963.22;4960544;28;46221;-63
2023/07/08 01:49:20;;;;;;;;;6.50;6.50;;;;;26.42;45.22;101002.09;4962359;28;46224;-63
2023/07/08 01:51:48;;;;;;;;;9.50;8.75;;;;;26.38;45.29;100996.06;4962059;28;45345;-63
2023/07/08 01:54:14;;;;;;;;;11.00;7.25;;;;;26.36;45.41;100989.00;4960243;28;45547;-63
2023/07/08 01:56:39;;;;;;;;;8.50;8.50;;;;;26.32;45.64;101001.25;4961579;28;45422;-62
2023/07/08 01:59:04;;;;;;;;;7.50;7.50;;;;;26.27;45.80;100978.94;4961738;28;54171;-63
2023/07/08 02:01:29;;;;;;;;;9.00;7.25;;;;;26.28;45.83;100997.97;4961826;28;45352;-63
2023/07/08 02:03:55;;;;;;;;;9.75;8.25;;;;;26.27;45.52;100998.09;4952556;28;45373;-62
2023/07/08 02:06:20;;;;;;;;;13.00;7.50;;;;;26.23;45.74;101000.28;4971995;28;50485;-63
2023/07/08 02:08:45;;;;;;;;;8.00;7.75;;;;;26.23;45.63;100992.91;4961480;28;57454;-63
2023/07/08 02:11:10;;;;;;;;;6.50;6.50;;;;;26.21;46.30;101011.34;4960999;28;58568;-63
2023/07/08 02:13:36;;;;;;;;;10.25;9.25;;;;;26.11;46.59;100999.56;4960224;28;56651;-62
2023/07/08 02:16:01;;;;;;;;;7.25;7.25;;;;;26.15;46.94;101005.59;4961499;28;45563;-62
2023/07/08 02:18:26;;;;;;;;;8.50;7.75;;;;;26.12;46.58;100990.31;4961442;28;46170;-63
2023/07/08 02:20:52;;;;;;;;;8.00;5.00;;;;;26.13;46.94;100999.38;4943957;28;51691;-63
2023/07/08 02:23:18;;;;;;;;;5.75;5.25;;;;;26.10;47.46;100983.28;4961210;28;45470;-63
2023/07/08 02:25:53;;;;;;;;;3.50;3.25;;;;;26.07;48.90;100978.97;4960898;28;52832;-62
2023/07/08 02:28:19;;;;;;;;;7.00;7.00;;;;;26.10;49.46;100980.56;4969910;28;47140;-62
2023/07/08 02:30:46;;;;;;;;;5.00;4.50;;;;;26.03;49.87;100959.25;4948789;28;45326;-62
2023/07/08 02:33:11;;;;;;;;;6.50;6.50;;;;;26.03;49.87;100966.59;4960381;28;45378;-63
2023/07/08 02:35:36;;;;;;;;;7.25;4.50;;;;;25.98;49.96;100964.28;4961522;28;45511;-62
2023/07/08 02:38:03;;;;;;;;;5.25;3.75;;;;;25.94;50.58;100967.41;4960550;28;63297;-63
2023/07/08 02:40:28;;;;;;;;;7.25;6.00;;;;;25.93;50.22;100969.28;4961042;28;45303;-63
2023/07/08 02:42:53;;;;;;;;;4.50;3.00;;;;;25.88;50.99;100952.47;4960781;28;45354;-63
2023/07/08 02:45:20;;;;;;;;;6.00;5.75;;;;;25.87;50.17;100954.31;4961136;28;45347;-62
2023/07/08 02:47:45;;;;;;;;;3.50;3.50;;;;;25.89;50.81;100943.22;4961177;28;46096;-63
2023/07/08 02:50:11;;;;;;;;;5.25;4.75;;;;;25.84;50.56;100940.06;4961651;28;49101;-63
2023/07/08 02:52:37;;;;;;;;;4.50;2.25;;;;;25.85;50.05;100929.00;4960583;28;45512;-63
2023/07/08 02:55:03;;;;;;;;;5.00;4.00;;;;;25.82;49.78;100929.28;4960210;28;45463;-63
2023/07/08 02:57:29;;;;;;;;;3.25;3.00;;;;;25.82;49.87;100932.00;4960809;28;46956;-63
2023/07/08 02:59:54;;;;;;;;;4.00;3.00;;;;;25.79;49.75;100932.28;4960659;28;52046;-63
2023/07/08 03:02:22;;;;;;;;;2.00;2.00;;;;;25.71;49.96;100923.97;4961402;28;45909;-63
2023/07/08 03:04:49;;;;;;;;;2.50;2.50;;;;;25.76;49.89;100931.72;4958547;28;45320;-63
2023/07/08 03:07:16;;;;;;;;;3.00;3.00;;;;;25.74;49.70;100926.38;4960909;28;47094;-63
2023/07/08 03:09:41;;;;;;;;;2.50;1.25;;;;;25.76;49.79;100923.50;4960828;28;45606;-63
2023/07/08 03:12:09;;;;;;;;;3.00;3.00;;;;;25.74;49.72;100917.34;4960828;28;45476;-63
2023/07/08 03:14:34;;;;;;;;;2.00;2.00;;;;;25.67;49.49;100908.84;4960040;28;45368;-63
2023/07/08 03:17:00;;;;;;;;;2.75;2.50;;;;;25.67;49.56;100914.31;4960782;28;46324;-63
2023/07/08 03:19:25;;;;;;;;;2.00;2.00;;;;;25.69;49.74;100899.50;4960507;28;45395;-63
2023/07/08 03:21:51;;;;;;;;;3.00;1.00;;;;;25.65;49.50;100906.25;4961145;28;45239;-63
2023/07/08 03:24:17;;;;;;;;;1.00;1.00;;;;;25.68;49.18;100902.38;4959984;28;45244;-63
2023/07/08 03:26:44;;;;;;;;;2.50;2.50;;;;;25.67;49.36;100906.97;4960442;28;46057;-63
2023/07/08 03:29:17;;;;;;;;;1.75;1.75;;;;;25.66;49.35;100891.59;4966471;28;45418;-63
2023/07/08 03:31:44;;;;;;;;;1.50;1.25;;;;;25.65;49.31;100889.84;4952323;28;45319;-63
2023/07/08 03:34:14;;;;;;;;;2.00;2.00;;;;;25.64;49.36;100890.00;4957870;28;45385;-62
2023/07/08 03:36:48;;;;;;;;;2.25;1.00;;;;;25.61;49.33;100898.47;4960325;28;46102;-63
2023/07/08 03:39:15;;;;;;;;;2.00;2.00;;;;;25.55;49.29;100871.75;4947618;28;45417;-63
2023/07/08 03:41:40;;;;;;;;;1.50;1.50;;;;;25.57;49.90;100876.03;4960912;28;45496;-63
2023/07/08 03:44:06;;;;;;;;;1.25;1.25;;;;;25.54;49.91;100870.00;4959404;28;45326;-62
2023/07/08 03:46:31;;;;;;;;;2.00;2.00;;;;;25.53;49.43;100866.41;4959555;28;61134;-63
2023/07/08 03:48:56;;;;;;;;;1.50;1.50;;;;;25.51;49.45;100858.38;4960357;28;45238;-62
2023/07/08 03:51:34;;;;;;;;;1.75;1.25;;;;;25.48;49.56;100850.44;4960759;28;53212;-63
2023/07/08 03:54:00;;;;;;;;;1.00;1.00;;;;;25.44;49.83;100843.56;4959561;28;45453;-63
2023/07/08 03:56:25;;;;;;;;;3.00;3.00;;;;;25.37;49.45;100833.34;4959862;28;45528;-62
2023/07/08 03:58:51;;;;;;;;;1.75;1.75;;;;;25.40;49.12;100841.25;4960267;28;45427;-63
2023/07/08 04:01:20;;;;;;;;;2.75;1.50;;;;;25.35;49.55;100830.75;4960369;28;45345;-63
2023/07/08 04:03:46;;;;;;;;;1.50;1.00;;;;;25.33;50.04;100824.56;4959286;28;45559;-63
2023/07/08 04:06:11;;;;;;;;;2.00;2.00;;;;;25.31;49.95;100818.41;4959998;28;45330;-62
2023/07/08 04:08:37;;;;;;;;;0.75;0.75;;;;;25.27;50.81;100811.47;4960178;28;45366;-63
2023/07/08 04:11:02;;;;;;;;;1.00;1.00;;;;;25.30;50.40;100805.72;4959812;28;45446;-63
2023/07/08 04:13:28;;;;;;;;;0.75;0.75;;;;;25.28;50.85;100803.13;4959419;28;45243;-63
2023/07/08 04:15:58;;;;;;;;;2.00;2.00;;;;;25.27;50.65;100797.81;4959577;28;45573;-62
2023/07/08 04:18:24;;;;;;;;;1.50;1.25;;;;;25.19;50.63;100790.28;4960139;28;45384;-63
2023/07/08 04:20:52;;;;;;;;;1.25;1.25;;;;;25.26;50.80;100805.16;4959994;28;45353;-63
2023/07/08 04:23:18;;;;;;;;;0.50;0.50;;;;;25.20;50.54;100799.38;4959449;28;45529;-62
2023/07/08 04:25:43;;;;;;;;;3.00;3.00;;;;;25.20;50.64;100805.69;4958649;28;46150;-63
2023/07/08 04:28:09;;;;;;;;;2.50;2.50;;;;;25.22;51.14;100811.00;4967061;28;45382;-63
2023/07/08 04:30:40;;;;;;;;;0.75;0.25;;;;;25.18;50.70;100826.84;4949107;28;45416;-63
2023/07/08 04:33:07;;;;;;;;;2.00;2.00;;;;;25.21;51.17;100840.22;4958783;28;45511;-62
2023/07/08 04:35:33;;;;;;;;;4.00;2.00;;;;;25.21;51.48;100847.53;4959539;28;47288;-62
2023/07/08 04:37:58;;;;;;;;;2.00;2.00;;;;;25.19;51.01;100850.38;4959531;28;45330;-63
2023/07/08 04:40:24;;;;;;;;;2.50;1.50;;;;;25.18;51.69;100854.16;4957162;28;58391;-63
2023/07/08 04:42:51;;;;;;;;;1.50;1.50;;;;;25.16;50.74;100850.69;4957711;28;52330;-63
2023/07/08 04:45:17;;;;;;;;;1.00;1.00;;;;;25.13;51.33;100851.84;4959397;28;45408;-62
2023/07/08 04:47:43;;;;;;;;;2.50;2.50;;;;;25.10;51.31;100857.56;4959180;28;45513;-63
2023/07/08 04:50:11;;;;;;;;;1.25;1.25;;;;;25.09;51.34;100860.44;4960016;28;45417;-62
2023/07/08 04:52:36;;;;;;;;;1.50;1.25;;;;;25.10;51.53;100876.69;4959157;28;45314;-63
2023/07/08 04:55:01;;;;;;;;;2.00;1.75;;;;;25.09;52.27;100883.19;4956447;28;61671;-63
2023/07/08 04:57:27;;;;;;;;;2.00;2.00;;;;;25.08;51.88;100878.72;4959211;28;52840;-63
2023/07/08 04:59:52;;;;;;;;;2.00;1.50;;;;;25.07;51.98;100876.97;4959543;28;45406;-63
2023/07/08 05:02:17;;;;;;;;;1.00;1.00;;;;;25.09;52.42;100885.03;4957836;28;45311;-63
2023/07/08 05:04:43;;;;;;;;;2.25;2.25;;;;;24.99;52.32;100874.06;4955921;28;45291;-63
2023/07/08 05:07:08;;;;;;;;;2.00;2.00;;;;;25.06;52.85;100891.66;4956428;28;45461;-63
2023/07/08 05:09:35;;;;;;;;;3.00;3.00;;;;;25.04;52.40;100896.38;4958287;28;45355;-63
2023/07/08 05:12:00;;;;;;;;;2.50;2.50;;;;;25.04;52.37;100895.50;4959039;28;45400;-63
2023/07/08 05:14:25;;;;;;;;;1.75;1.50;;;;;25.04;52.61;100907.31;4958258;28;45477;-63
2023/07/08 05:16:51;;;;;;;;;3.50;3.50;;;;;25.00;53.03;100897.66;4958563;28;48233;-63
2023/07/08 05:19:16;;;;;;;;;2.00;2.00;;;;;24.98;52.80;100894.22;4959237;28;45434;-63
2023/07/08 05:21:42;;;;;;;;;3.00;3.00;;;;;24.98;52.70;100896.94;4945767;28;45528;-63
2023/07/08 05:24:08;;;;;;;;;2.75;2.75;;;;;25.00;53.49;100911.31;4956259;28;46055;-63
2023/07/08 05:26:33;;;;;;;;;3.00;2.00;;;;;25.00;53.17;100924.13;4958954;28;45597;-63
2023/07/08 05:28:59;;;;;;;;;3.00;3.00;;;;;24.98;52.69;100943.38;4970048;28;45409;-63
2023/07/08 05:31:24;;;;;;;;;2.25;2.25;;;;;24.96;52.93;100965.34;4951505;28;45690;-63
2023/07/08 05:33:50;;;;;;;;;3.25;3.00;;;;;24.90;52.98;100957.69;4960931;28;45440;-63
2023/07/08 05:36:16;;;;;;;;;3.25;3.25;;;;;24.94;52.95;100961.91;4961897;28;45370;-63
2023/07/08 05:38:41;;;;;;;;;2.00;2.00;;;;;24.95;53.13;100954.56;4962315;28;45314;-63
2023/07/08 05:41:07;;;;;;;;;2.75;2.75;;;;;24.92;53.58;100963.03;4961900;28;45493;-63
2023/07/08 05:43:32;;;;;;;;;3.50;3.00;;;;;24.95;53.01;100973.66;4960978;28;45504;-63
2023/07/08 05:46:01;;;;;;;;;2.00;2.00;;;;;24.93;53.77;100981.16;4961402;28;45338;-63
2023/07/08 05:48:27;;;;;;;;;2.00;2.00;;;;;24.89;53.11;100977.81;4962424;28;45421;-63
2023/07/08 05:50:52;;;;;;;;;3.00;2.50;;;;;24.85;53.79;100970.03;4962430;28;45500;-63
2023/07/08 05:53:20;;;;;;;;;4.00;4.00;;;;;24.93;53.77;100978.41;4961039;28;46250;-62
2023/07/08 05:55:45;;;;;;;;;3.75;2.75;;;;;24.92;53.03;100988.44;4961460;28;45435;-62
2023/07/08 05:58:15;;;;;;;;;5.50;2.75;;;;;24.88;53.74;100991.63;4962033;28;45393;-62
2023/07/08 06:00:40;;;;;;;;;2.25;2.25;;;;;24.84;53.54;100993.75;4962099;28;45274;-63
2023/07/08 06:03:05;;;;;;;;;4.00;3.00;;;;;24.86;53.10;100985.41;4959831;28;46545;-63
2023/07/08 06:05:32;;;;;;;;;2.50;2.50;;;;;24.85;53.47;100997.34;4962178;28;50231;-63
2023/07/08 06:07:58;;;;;;;;;3.00;3.00;;;;;24.93;53.51;101011.19;4961940;28;45479;-63
2023/07/08 06:10:23;;;;;;;;;1.75;1.75;;;;;24.87;53.59;101007.09;4961532;28;45623;-63
2023/07/08 06:12:48;;;;;;;;;3.00;2.00;;;;;24.95;53.86;101034.59;4961741;28;46385;-63
2023/07/08 06:15:14;;;;;;;;;3.00;3.00;;;;;24.95;53.98;101036.47;4955254;28;54798;-66
2023/07/08 06:17:39;;;;;;;;;2.25;2.25;;;;;24.95;53.47;101050.97;4961140;28;45507;-66
2023/07/08 06:20:05;;;;;;;;;4.00;2.75;;;;;24.92;53.14;101047.66;4972285;28;45409;-66
2023/07/08 06:22:30;;;;;;;;;3.75;2.25;;;;;24.90;53.29;101052.41;4965155;28;46418;-66
2023/07/08 06:24:56;;;;;;;;;3.00;2.00;;;;;24.87;53.33;101048.06;4963621;28;45440;-66
2023/07/08 06:27:21;;;;;;;;;4.00;2.50;;;;;24.95;53.79;101069.25;4969190;28;55120;-66
2023/07/08 06:29:46;;;;;;;;;2.75;2.75;;;;;24.95;53.49;101067.38;4962221;28;46389;-67
2023/07/08 06:32:11;;;;;;;;;2.00;2.00;;;;;24.96;53.76;101054.59;4965274;28;54892;-66
2023/07/08 06:34:37;;;;;;;;;2.25;2.25;;;;;25.01;53.92;101055.06;4962750;28;45273;-66
2023/07/08 06:37:02;;;;;;;;;2.00;2.00;;;;;25.01;53.96;101063.25;4957434;28;45535;-66
2023/07/08 06:39:28;;;;;;;;;2.00;2.00;;;;;25.00;54.21;101069.69;4966142;28;45319;-65
2023/07/08 06:41:53;;;;;;;;;3.00;3.00;;;;;25.00;54.33;101064.25;4967052;28;46857;-65
2023/07/08 06:44:18;;;;;;;;;2.00;2.00;;;;;25.04;54.24;101089.41;4960241;28;50090;-66
2023/07/08 06:46:44;;;;;;;;;2.75;2.75;;;;;25.06;53.76;101088.28;4957972;28;45531;-65
2023/07/08 06:49:09;;;;;;;;;0.25;0.00;;;;;25.07;54.10;101089.13;4965710;28;45370;-65
2023/07/08 06:51:35;;;;;;;;;2.75;2.75;;;;;25.06;53.36;101090.13;4961730;28;46244;-65
2023/07/08 06:54:04;;;;;;;;;1.75;1.75;;;;;25.07;53.33;101090.00;4959400;28;45773;-65
2023/07/08 06:56:30;;;;;;;;;2.00;2.00;;;;;25.04;53.22;101089.41;4961595;28;45718;-65
2023/07/08 06:58:56;;;;;;;;;2.75;2.00;;;;;25.04;53.61;101087.56;4959515;28;45631;-65
2023/07/08 07:01:21;;;;;;;;;1.25;1.25;;;;;25.00;52.96;101088.81;4957562;28;45404;-66
2023/07/08 07:03:46;;;;;;;;;1.00;0.00;;;;;25.04;53.53;101095.75;4963851;28;54724;-66
2023/07/08 07:06:12;;;;;;;;;2.75;1.50;;;;;25.04;53.38;101100.31;4968301;28;45269;-66
2023/07/08 07:08:37;;;;;;;;;3.00;2.00;;;;;25.05;53.14;101102.94;4962390;28;53886;-67
2023/07/08 07:11:02;;;;;;;;;3.75;2.00;;;;;25.08;52.60;101105.41;4959770;28;46487;-69
2023/07/08 07:13:27;;;;;;;;;2.00;2.00;;;;;25.09;53.20;101098.06;4959483;28;50343;-68
2023/07/08 07:15:53;;;;;;;;;2.50;2.00;;;;;25.13;52.65;101094.94;4968805;28;45385;-68
2023/07/08 07:18:18;;;;;;;;;3.25;3.00;;;;;25.13;53.14;101103.13;4957734;28;45348;-69
2023/07/08 07:20:49;;;;;;;;;2.00;2.00;;;;;25.16;52.62;101104.72;4957819;28;46433;-69
2023/07/08 07:23:15;;;;;;;;;1.50;1.50;;;;;25.22;52.55;101108.78;4970365;28;45322;-65
2023/07/08 07:25:40;;;;;;;;;1.00;1.00;;;;;25.24;52.71;101101.28;4966249;28;45444;-65
2023/07/08 07:28:06;;;;;;;;;1.25;1.25;;;;;25.24;52.73;101094.00;4958527;28;45472;-66
2023/07/08 07:30:31;;;;;;;;;3.00;2.75;;;;;25.29;52.03;101096.31;4959836;28;46140;-65
2023/07/08 07:33:00;;;;;;;;;2.50;1.75;;;;;25.24;52.90;101094.00;4960184;28;45417;-66
2023/07/08 07:35:25;;;;;;;;;1.75;1.75;;;;;25.32;53.00;101094.16;4959334;28;47105;-65
2023/07/08 07:37:50;;;;;;;;;0.25;0.25;;;;;25.43;52.45;101097.84;4956301;28;45623;-66
2023/07/08 07:40:16;;;;;;;;;2.50;2.50;;;;;25.48;52.31;101104.59;4956967;28;45383;-65
2023/07/08 07:42:43;;;;;;;;;2.00;2.00;;;;;25.56;52.96;101105.78;4955009;28;45361;-66
2023/07/08 07:45:09;;;;;;;;;4.25;3.25;;;;;25.59;52.85;101100.03;4959655;28;45391;-66
2023/07/08 07:47:35;;;;;;;;;3.25;3.00;;;;;25.69;52.31;101106.38;4959999;28;45548;-66
2023/07/08 07:50:02;;;;;;;;;2.25;2.25;;;;;25.74;52.39;101100.50;4959001;28;46184;-66
2023/07/08 07:52:27;;;;;;;;;3.25;2.25;;;;;25.76;52.69;101096.66;4946184;28;45537;-65
2023/07/08 07:54:53;;;;;;;;;5.00;3.75;;;;;25.88;52.17;101106.44;4959025;28;45411;-66
2023/07/08 07:57:19;;;;;;;;;2.50;2.50;;;;;25.98;51.82;101109.25;4957913;28;45464;-65
2023/07/08 07:59:45;;;;;;;;;3.00;3.00;;;;;26.06;52.23;101111.25;4965934;28;46222;-65
2023/07/08 08:02:11;;;;;;;;;2.75;2.75;;;;;26.12;52.29;101113.44;4963621;28;45565;-64
2023/07/08 08:04:37;;;;;;;;;4.00;4.00;;;;;26.21;52.12;101118.06;4955458;28;45592;-65
2023/07/08 08:07:02;;;;;;;;;3.00;3.00;;;;;26.28;51.56;101122.94;4956795;28;45443;-64
2023/07/08 08:09:28;;;;;;;;;4.50;4.25;;;;;26.36;51.39;101123.97;4957228;28;46824;-64
2023/07/08 08:11:54;;;;;;;;;2.25;2.25;;;;;26.42;51.47;101115.16;4955900;28;53073;-64
2023/07/08 08:14:19;;;;;;;;;2.25;2.25;;;;;26.49;50.87;101120.94;4960761;28;45516;-64
2023/07/08 08:16:45;;;;;;;;;2.75;2.75;;;;;26.56;51.46;101115.75;4958481;28;47445;-64
2023/07/08 08:19:10;;;;;;;;;3.25;3.00;;;;;26.62;51.58;101112.44;4957968;28;52186;-64
2023/07/08 08:21:35;;;;;;;;;7.50;4.50;;;;;26.71;51.16;101129.88;4960891;28;51199;-65
2023/07/08 08:24:01;;;;;;;;;4.00;4.00;;;;;26.77;50.53;101129.31;4954815;28;50799;-63
2023/07/08 08:26:26;;;;;;;;;3.75;3.75;;;;;26.82;50.62;101121.53;4957011;28;45439;-63
2023/07/08 08:28:51;;;;;;;;;3.75;2.75;;;;;26.89;51.01;101127.28;4958619;28;45465;-63
2023/07/08 08:31:16;;;;;;;;;2.75;2.75;;;;;26.96;50.80;101137.50;4957105;28;49806;-63
2023/07/08 08:33:42;;;;;;;;;2.50;2.00;;;;;27.01;50.69;101130.72;4957537;28;55712;-63
2023/07/08 08:36:07;;;;;;;;;5.00;3.00;;;;;27.11;50.64;101146.09;4957556;28;45856;-63
2023/07/08 08:38:32;;;;;;;;;4.25;4.25;;;;;27.15;50.34;101141.22;4951931;28;46119;-63
2023/07/08 08:40:58;;;;;;;;;3.00;1.75;;;;;27.25;50.31;101147.53;4958986;28;45357;-63
2023/07/08 08:43:33;;;;;;;;;5.00;4.00;;;;;27.30;49.96;101149.88;4954940;28;45473;-63
2023/07/08 08:46:04;;;;;;;;;1.50;1.50;;;;;27.33;49.72;101147.69;4946238;28;45389;-63
2023/07/08 08:48:35;;;;;;;;;3.25;3.25;;;;;27.39;50.09;101145.34;4958167;28;46683;-63
2023/07/08 08:51:12;;;;;;;;;5.50;5.50;;;;;27.41;49.51;101146.91;4959701;28;45474;-63
2023/07/08 08:53:37;;;;;;;;;3.50;3.50;;;;;27.46;50.09;101160.19;4957724;28;45537;-63
2023/07/08 08:56:20;;;;;;;;;4.25;4.25;;;;;27.51;49.89;101144.13;4952823;28;45664;-63
2023/07/08 08:58:53;;;;;;;;;2.25;2.25;;;;;27.54;49.64;101144.69;4958413;28;45358;-63
2023/07/08 09:01:19;;;;;;;;;4.50;4.00;;;;;27.56;49.83;101141.81;4958418;28;45477;-63
2023/07/08 09:03:55;;;;;;;;;7.00;3.75;;;;;27.60;49.80;101140.50;4962811;28;45415;-65
2023/07/08 09:06:27;;;;;;;;;5.25;5.00;;;;;27.62;50.12;101143.09;4964577;28;45616;-65
2023/07/08 09:08:55;;;;;;;;;4.75;2.50;;;;;27.68;49.10;101148.84;4962233;28;46217;-65
2023/07/08 09:11:39;;;;;;;;;5.00;5.00;;;;;27.72;49.67;101152.13;4962052;28;45476;-64
2023/07/08 09:14:32;;;;;;;;;6.00;5.00;;;;;27.76;49.60;101155.44;4968309;28;45413;-65
2023/07/08 09:17:19;;;;;;;;;5.50;5.50;;;;;27.78;50.03;101159.75;4952282;28;45877;-65
2023/07/08 09:19:51;;;;;;;;;4.00;4.00;;;;;27.77;50.04;101140.72;4960815;28;46070;-64
2023/07/08 09:22:28;;;;;;;;;4.00;4.00;;;;;27.79;49.65;101145.03;4962368;28;45333;-64
2023/07/08 09:25:11;;;;;;;;;5.50;5.00;;;;;27.88;50.04;101151.47;4955021;28;45449;-64
2023/07/08 09:27:37;;;;;;;;;4.75;4.75;;;;;27.86;49.16;101128.81;4962618;28;45495;-65
2023/07/08 09:30:02;;;;;;;;;5.50;4.75;;;;;27.90;49.31;101133.84;4960699;28;47031;-65
2023/07/08 09:32:28;;;;;;;;;4.00;4.00;;;;;28.00;49.51;101141.16;4961329;28;45509;-65
2023/07/08 09:35:04;;;;;;;;;5.00;4.00;;;;;28.01;49.49;101149.25;4960656;28;45630;-64
2023/07/08 09:37:32;;;;;;;;;4.00;4.00;;;;;28.04;50.01;101150.84;4960769;28;45441;-64
2023/07/08 09:40:00;;;;;;;;;6.25;5.25;;;;;28.07;49.31;101151.38;4961612;28;45677;-63
2023/07/08 09:42:31;;;;;;;;;7.50;5.75;;;;;28.04;49.35;101135.22;4946829;28;45450;-63
2023/07/08 09:45:01;;;;;;;;;5.00;3.50;;;;;28.13;49.09;101144.41;4962229;28;45452;-65
2023/07/08 09:47:30;;;;;;;;;6.00;5.00;;;;;28.19;48.80;101145.69;4959708;28;45493;-65
2023/07/08 09:49:57;;;;;;;;;3.00;3.00;;;;;28.23;48.32;101149.84;4957394;28;47277;-66
2023/07/08 09:52:22;;;;;;;;;4.25;4.25;;;;;28.20;48.76;101136.41;4961702;28;45329;-65
2023/07/08 09:54:49;;;;;;;;;2.25;2.25;;;;;28.24;48.96;101141.44;4959826;28;45350;-66
2023/07/08 09:57:25;;;;;;;;;5.50;4.75;;;;;28.29;48.79;101135.50;4955768;28;45571;-66
2023/07/08 10:00:02;;;;;;;;;4.50;4.50;;;;;28.38;48.88;101137.28;4941302;28;45402;-65
2023/07/08 10:02:44;;;;;;;;;3.50;3.50;;;;;28.43;49.03;101134.06;4960956;28;45394;-66
2023/07/08 10:05:30;;;;;;;;;4.00;3.50;;;;;28.45;48.23;101124.69;4956222;28;45499;-66
2023/07/08 10:07:57;;;;;;;;;4.50;4.25;;;;;28.42;47.81;101118.66;4958752;28;45376;-65
2023/07/08 10:10:37;;;;;;;;;5.00;5.00;;;;;28.45;48.19;101121.94;4961194;28;45588;-65
2023/07/08 10:13:24;;;;;;;;;6.00;4.25;;;;;28.49;48.94;101122.47;4955603;28;45418;-66
2023/07/08 10:15:55;;;;;;;;;5.00;5.00;;;;;28.52;47.88;101116.69;4926271;28;45582;-64
2023/07/08 10:18:27;;;;;;;;;3.00;3.00;;;;;28.56;47.73;101109.00;4955235;28;45457;-65
2023/07/08 10:21:18;;;;;;;;;7.50;6.00;;;;;28.62;47.90;101119.38;4951320;28;45808;-65
2023/07/08 10:23:48;;;;;;;;;5.75;5.75;;;;;28.67;47.42;101127.09;4963500;28;45483;-64
2023/07/08 10:26:26;;;;;;;;;3.75;3.75;;;;;28.62;47.64;101113.88;4945686;28;45564;-64
2023/07/08 10:29:09;;;;;;;;;5.00;3.75;;;;;28.69;47.15;101114.97;4961441;28;45675;-64
2023/07/08 10:31:48;;;;;;;;;7.50;5.75;;;;;28.74;47.12;101115.34;4940351;28;47389;-65
2023/07/08 10:34:41;;;;;;;;;5.00;4.00;;;;;28.78;47.20;101122.22;4962751;28;45924;-63
2023/07/08 10:37:31;;;;;;;;;5.50;4.00;;;;;28.79;47.62;101120.34;4956288;28;45974;-63
2023/07/08 10:40:14;;;;;;;;;6.50;6.50;;;;;28.84;46.98;101126.25;4968777;28;45623;-64
2023/07/08 10:43:15;;;;;;;;;4.25;4.25;;;;;28.86;46.71;101123.34;4955904;28;46080;-64
2023/07/08 10:46:05;;;;;;;;;6.00;6.00;;;;;28.87;46.61;101120.44;4941665;28;70746;-64
2023/07/08 10:48:42;;;;;;;;;7.00;5.50;;;;;28.94;46.34;101128.88;4960959;28;45500;-64
2023/07/08 10:51:23;;;;;;;;;5.00;4.00;;;;;28.92;46.33;101133.66;4956808;28;45380;-64
2023/07/08 10:54:26;;;;;;;;;4.75;3.25;;;;;28.87;46.15;101122.28;4959727;28;45575;-64
2023/07/08 10:57:39;;;;;;;;;4.25;4.25;;;;;28.92;46.45;101129.03;4959586;28;45425;-64
2023/07/08 11:00:22;;;;;;;;;5.25;5.25;;;;;28.94;46.14;101126.13;4882623;28;45498;-64
2023/07/08 11:03:27;;;;;;;;;5.75;5.50;;;;;29.02;46.08;101137.19;4960772;28;45397;-64
2023/07/08 11:06:09;;;;;;;;;6.00;6.00;;;;;28.99;45.68;101124.63;4963775;28;45476;-64
2023/07/08 11:08:54;;;;;;;;;4.25;4.25;;;;;28.99;46.10;101118.28;4952575;28;45486;-64
2023/07/08 11:11:44;;;;;;;;;4.75;4.75;;;;;29.05;46.38;101114.00;4959843;28;45372;-64
2023/07/08 11:14:18;;;;;;;;;5.25;4.25;;;;;29.07;46.51;101109.19;4960589;28;45435;-64
2023/07/08 11:17:31;;;;;;;;;4.50;4.50;;;;;29.11;46.38;101114.22;4960625;28;45457;-64
2023/07/08 11:20:07;;;;;;;;;5.25;5.25;;;;;29.08;45.76;101103.53;4882830;29;45503;-64
2023/07/08 11:22:37;;;;;;;;;4.50;4.50;;;;;29.06;45.24;101097.34;4949843;28;45403;-64
2023/07/08 11:25:07;;;;;;;;;5.25;5.25;;;;;29.15;45.75;101107.41;4951116;28;45480;-64
2023/07/08 11:27:38;;;;;;;;;5.75;5.75;;;;;29.17;45.80;101102.63;4955674;28;46203;-64
2023/07/08 11:30:24;;;;;;;;;5.25;5.25;;;;;29.19;46.22;101100.56;4949839;28;45577;-64
2023/07/08 11:33:00;;;;;;;;;5.25;5.25;;;;;29.15;46.64;101085.41;4948325;28;45504;-64